Startpagina
METAR-TAF:

METAR-TAF

Vliegvelden :

Sint Maarten, Nederlandse Antillen

Princess Juliana International Airport

breedte: 18-03N, lengte: 063-07W, hoogte: 4 m

Actueel weer

Dit bericht is 1 uur en het 3 minuten geleden gemaakt, om 13:00 UTC
Wind 5 kt uit het zuidoosten, variërend tussen het oosten en het zuiden
Temperatuur 30°C
Vochtigheid 70%
Druk 1012 hPa
Zicht 10 km of meer
Weinig wolken op 1800 ft

METAR: TNCM 191300Z 14005KT 090V180 9999 FEW018 FEW//TCU 30/24 Q1011 A2987 NOSIG RMK TCU SE/S/N/NW

Tijdstip: 10:03 (14:03 UTC)

Verwachting

Dit bericht is 2 uur en het 22 minuten geleden gemaakt, om 11:41 UTC
Verwachting geldig van 19 om 12 UTC tot 20 om 12 UTC
Wind 4 kt uit het zuidoosten
Zicht: 10 km
Weinig wolken op 1700 ft
Gebroken wolken op 5000 ft
buien in de omgeving
Van 19 om 1300 UTC
Wind 7 kt uit het zuidoosten
Zicht: 10 km
Weinig wolken op 3000 ft
Verspreide wolken op 4000 ft
buien in de omgeving

TAF: TNCM 191141Z 1912/2012 14004KT P6SM VCSH FEW017 BKN050 FM191300 13007KT P6SM VCSH FEW030 SCT040

Waarnemingen en weersverwachtingen van meer dan 4000 vliegvelden (METAR en TAF).

De beschikbare stations zijn de gele en rode punten op de kaart.

Ga met uw muis naar het station om de naam te zien.

Klik dan om waarnemingen en weersverwachtingen te zien.

kaart wijzigen: klik op de groene knoppen met een zwart kruis om in te zoomen, op de groene knop met een streepje om uit te zoomen of op de groene pijlen voor aangrenzende kaarten.


METAR-TAF: